Time;durP1;ratioP1;P1;durP2;ratioP2;P2;SDS_P1;SDS_P2;PMS_P1;PMS_P2;Temp;Humidity;BMP_temperature;BMP_pressure;BME280_temperature;BME280_humidity;BME280_pressure;Samples;Min_cycle;Max_cycle;Signal;HPM_P1;HPM_P2
2022/10/15 00:00:49;;;;;;;22.00;14.45;;;;;;;-140.72;100.00;52942.81;5047333;28;20087;-70
2022/10/15 00:03:14;;;;;;;20.75;13.50;;;;;;;-140.72;100.00;52940.78;5047106;28;20048;-68
2022/10/15 00:05:40;;;;;;;18.98;13.93;;;;;;;-140.72;100.00;52977.31;5043590;28;20018;-69
2022/10/15 00:08:07;;;;;;;17.00;13.52;;;;;;;-140.72;100.00;52948.91;5041298;28;20028;-70
2022/10/15 00:10:33;;;;;;;20.17;14.55;;;;;;;-140.72;100.00;52934.69;5041228;28;20021;-69
2022/10/15 00:12:59;;;;;;;21.25;15.50;;;;;;;-140.72;100.00;52906.28;5041612;28;20028;-68
2022/10/15 00:15:24;;;;;;;20.80;13.80;;;;;;;-140.72;100.00;52936.72;5036015;28;20021;-68
2022/10/15 00:17:49;;;;;;;20.10;14.48;;;;;;;-140.72;100.00;52959.06;5035309;28;20108;-69
2022/10/15 00:20:15;;;;;;;22.80;14.02;;;;;;;-140.72;100.00;52950.94;5046512;28;20044;-67
2022/10/15 00:22:40;;;;;;;20.42;14.73;;;;;;;-140.72;100.00;52940.78;5038342;28;20049;-68
2022/10/15 00:25:06;;;;;;;19.23;14.57;;;;;;;-140.72;100.00;52922.53;5045748;28;20056;-69
2022/10/15 00:27:33;;;;;;;24.77;16.85;;;;;;;-140.72;100.00;52912.38;5050877;28;20099;-68
2022/10/15 00:29:59;;;;;;;19.20;14.75;;;;;;;-140.72;100.00;52922.53;5045562;28;20038;-69
2022/10/15 00:32:27;;;;;;;20.17;15.48;;;;;;;-140.72;100.00;52908.31;5041961;28;20032;-68
2022/10/15 00:34:53;;;;;;;21.67;15.73;;;;;;;-140.72;100.00;52908.31;5052161;28;20165;-69
2022/10/15 00:37:20;;;;;;;25.55;16.30;;;;;;;-140.72;100.00;52952.97;5038477;28;20039;-69
2022/10/15 00:39:45;;;;;;;26.42;16.38;;;;;;;-140.72;100.00;52957.03;5050444;28;20028;-68
2022/10/15 00:42:11;;;;;;;22.25;14.98;;;;;;;-140.72;100.00;52902.22;5051492;28;20021;-68
2022/10/15 00:44:37;;;;;;;19.83;14.52;;;;;;;-140.72;100.00;52877.88;5052045;28;20155;-69
2022/10/15 00:47:13;;;;;;;21.00;14.80;;;;;;;-140.72;100.00;52920.50;5051360;28;20040;-69
2022/10/15 00:49:42;;;;;;;23.10;15.98;;;;;;;-140.72;100.00;52924.56;5052300;28;20021;-68
2022/10/15 00:52:07;;;;;;;28.58;16.48;;;;;;;-140.72;100.00;52936.72;5047265;28;20423;-68
2022/10/15 00:54:41;;;;;;;18.17;14.80;;;;;;;-140.72;100.00;52938.75;5041131;28;20021;-68
2022/10/15 00:57:08;;;;;;;27.02;17.45;;;;;;;-140.72;100.00;52910.34;5035703;28;20029;-68
2022/10/15 00:59:38;;;;;;;22.42;15.55;;;;;;;-140.72;100.00;52942.81;5044291;28;20529;-68
2022/10/15 01:02:05;;;;;;;21.58;15.45;;;;;;;-140.72;100.00;52930.66;5040003;28;20040;-68
2022/10/15 01:04:31;;;;;;;20.83;15.18;;;;;;;-140.72;100.00;52936.72;5042261;28;20092;-67
2022/10/15 01:06:56;;;;;;;23.88;16.63;;;;;;;-140.72;100.00;52930.66;5051504;28;20036;-68
2022/10/15 01:09:22;;;;;;;23.83;15.15;;;;;;;-140.72;100.00;52977.31;5033207;28;20422;-68
2022/10/15 01:11:50;;;;;;;23.00;15.07;;;;;;;-140.72;100.00;52894.13;5037748;28;20025;-69
2022/10/15 01:14:24;;;;;;;18.48;13.98;;;;;;;-140.72;100.00;52936.72;5050296;28;20033;-68
2022/10/15 01:17:03;;;;;;;19.40;14.05;;;;;;;-140.72;100.00;52946.88;5051543;28;20281;-70
2022/10/15 01:19:35;;;;;;;23.63;15.52;;;;;;;-140.72;100.00;52918.47;5040282;28;20385;-67
2022/10/15 01:22:08;;;;;;;19.35;14.30;;;;;;;-140.72;100.00;52928.63;5047930;28;20087;-69
2022/10/15 01:24:47;;;;;;;19.73;15.48;;;;;;;-140.72;100.00;52916.44;5038755;28;20044;-69
2022/10/15 01:27:35;;;;;;;20.92;15.88;;;;;;;-140.72;100.00;52971.22;5046620;28;20041;-71
2022/10/15 01:30:15;;;;;;;21.13;14.02;;;;;;;-140.72;100.00;52928.63;5029581;28;20132;-69
2022/10/15 01:32:56;;;;;;;;;;;;;;;-140.72;100.00;52904.25;5041328;28;20329;-69
2022/10/15 01:35:32;;;;;;;28.65;17.80;;;;;;;-140.72;100.00;52910.34;5036955;28;20272;-69
2022/10/15 01:38:37;;;;;;;21.40;15.80;;;;;;;-140.72;100.00;52942.81;5033909;28;20104;-68
2022/10/15 01:41:09;;;;;;;21.02;15.95;;;;;;;-140.72;100.00;52938.75;5029942;28;20139;-71
2022/10/15 01:43:43;;;;;;;24.02;17.30;;;;;;;-140.72;100.00;52932.66;5037332;28;20020;-70
2022/10/15 01:46:19;;;;;;;21.23;16.52;;;;;;;-140.72;100.00;52922.53;5049939;28;20021;-70
2022/10/15 01:48:47;;;;;;;23.10;17.15;;;;;;;-140.72;100.00;52946.88;5049790;28;20465;-69
2022/10/15 01:51:15;;;;;;;25.27;15.85;;;;;;;-140.72;100.00;52934.69;5044780;28;20412;-71
2022/10/15 01:53:42;;;;;;;23.20;16.10;;;;;;;-140.72;100.00;52952.97;5051651;28;20025;-71
2022/10/15 01:56:13;;;;;;;22.95;16.98;;;;;;;-140.72;100.00;52934.69;5045620;28;20033;-69
2022/10/15 01:58:45;;;;;;;22.30;17.08;;;;;;;-140.72;100.00;52938.75;5051143;28;20108;-69
2022/10/15 02:01:10;;;;;;;25.05;18.05;;;;;;;-140.72;100.00;52930.66;5049403;28;20032;-69
2022/10/15 02:03:47;;;;;;;22.25;16.30;;;;;;;-140.72;100.00;52950.94;5045938;28;20029;-68
2022/10/15 02:06:35;;;;;;;21.88;16.27;;;;;;;-140.72;100.00;52932.66;5043364;28;20028;-69
2022/10/15 02:09:04;;;;;;;23.00;16.15;;;;;;;-140.72;100.00;52906.28;5030321;28;20394;-68
2022/10/15 02:11:35;;;;;;;22.00;18.58;;;;;;;-140.72;100.00;52926.59;5043146;28;20044;-69
2022/10/15 02:14:08;;;;;;;21.00;16.35;;;;;;;-140.72;100.00;52926.59;5031046;28;20057;-70
2022/10/15 02:16:42;;;;;;;22.10;16.58;;;;;;;-140.72;100.00;52934.69;5046982;28;20042;-70
2022/10/15 02:19:20;;;;;;;24.65;17.10;;;;;;;-140.72;100.00;52924.56;5050046;28;20052;-70
2022/10/15 02:22:26;;;;;;;21.40;17.13;;;;;;;-140.72;100.00;52920.50;5038608;28;20009;-68
2022/10/15 02:25:00;;;;;;;23.55;16.52;;;;;;;-140.72;100.00;52948.91;5049476;28;20064;-70
2022/10/15 02:27:29;;;;;;;19.98;15.98;;;;;;;-140.72;100.00;52934.69;5047623;28;20041;-69
2022/10/15 02:29:56;;;;;;;27.95;18.20;;;;;;;-140.72;100.00;52922.53;5039064;28;20076;-70
2022/10/15 02:32:23;;;;;;;23.98;17.08;;;;;;;-140.72;100.00;52955.00;5048819;28;20031;-68
2022/10/15 02:34:51;;;;;;;21.52;17.30;;;;;;;-140.72;100.00;52910.34;5042512;28;20048;-69
2022/10/15 02:37:19;;;;;;;22.95;16.75;;;;;;;-140.72;100.00;52930.66;5045186;28;20029;-70
2022/10/15 02:39:45;;;;;;;20.75;16.50;;;;;;;-140.72;100.00;52950.94;5037805;28;20021;-68
2022/10/15 02:42:11;;;;;;;21.80;15.55;;;;;;;-140.72;100.00;52920.50;5039162;28;20039;-69
2022/10/15 02:44:36;;;;;;;26.33;16.98;;;;;;;-140.72;100.00;52952.97;5035118;28;20025;-70
2022/10/15 02:47:02;;;;;;;21.63;17.15;;;;;;;-140.72;100.00;52952.97;5048623;28;20021;-70
2022/10/15 02:49:27;;;;;;;26.33;18.48;;;;;;;-140.72;100.00;52955.00;5046651;28;20442;-70
2022/10/15 02:51:53;;;;;;;24.27;17.35;;;;;;;-140.72;100.00;52944.84;5046754;28;20033;-69
2022/10/15 02:54:18;;;;;;;19.35;15.23;;;;;;;-140.72;100.00;52950.94;5048717;28;20024;-68
2022/10/15 02:56:43;;;;;;;21.15;16.48;;;;;;;-140.72;100.00;52946.88;5050103;28;20507;-69
2022/10/15 02:59:09;;;;;;;27.73;19.17;;;;;;;-140.72;100.00;52950.94;5039656;28;20531;-69
2022/10/15 03:01:34;;;;;;;20.90;17.05;;;;;;;-140.72;100.00;52969.19;5046485;28;20052;-68
2022/10/15 03:04:00;;;;;;;25.40;18.50;;;;;;;-140.72;100.00;52963.13;5049309;28;20020;-69
2022/10/15 03:06:26;;;;;;;20.27;15.57;;;;;;;-140.72;100.00;52944.84;5044475;28;20446;-68
2022/10/15 03:08:54;;;;;;;22.75;17.10;;;;;;;-140.72;100.00;52898.16;5044895;28;20024;-68
2022/10/15 03:11:20;;;;;;;21.92;14.93;;;;;;;-140.72;100.00;52940.78;5040722;28;20022;-69
2022/10/15 03:13:45;;;;;;;23.02;16.67;;;;;;;-140.72;100.00;52967.16;5029520;28;20061;-69
2022/10/15 03:16:11;;;;;;;22.08;16.20;;;;;;;-140.72;100.00;52955.00;5042540;28;20083;-70
2022/10/15 03:18:37;;;;;;;18.13;15.35;;;;;;;-140.72;100.00;52981.38;5037072;28;20338;-69
2022/10/15 03:21:03;;;;;;;21.35;15.68;;;;;;;-140.72;100.00;52971.22;5040305;28;20028;-67
2022/10/15 03:23:29;;;;;;;29.35;16.38;;;;;;;-140.72;100.00;52967.16;5042363;28;20113;-71
2022/10/15 03:25:54;;;;;;;24.92;17.42;;;;;;;-140.72;100.00;52955.00;5031474;28;20091;-70
2022/10/15 03:28:21;;;;;;;26.55;17.23;;;;;;;-140.72;100.00;52955.00;5042050;28;20469;-68
2022/10/15 03:30:47;;;;;;;22.50;16.02;;;;;;;-140.72;100.00;52957.03;5041154;28;20025;-68
2022/10/15 03:33:12;;;;;;;20.85;15.63;;;;;;;-140.72;100.00;52928.63;5045890;28;20626;-69
2022/10/15 03:35:38;;;;;;;26.40;16.88;;;;;;;-140.72;100.00;52936.72;5034493;28;20071;-70
2022/10/15 03:38:04;;;;;;;22.02;16.88;;;;;;;-140.72;100.00;52973.25;5045678;28;20029;-69
2022/10/15 03:40:29;;;;;;;19.73;16.15;;;;;;;-140.72;100.00;52952.97;5041130;28;20017;-69
2022/10/15 03:42:58;;;;;;;24.35;18.45;;;;;;;-140.72;100.00;52959.06;5046476;28;20108;-70
2022/10/15 03:45:23;;;;;;;23.75;17.73;;;;;;;-140.72;100.00;52977.31;5037262;28;20021;-69
2022/10/15 03:47:49;;;;;;;26.50;17.23;;;;;;;-140.72;100.00;52938.75;5046540;28;20048;-71
2022/10/15 03:50:15;;;;;;;25.77;19.23;;;;;;;-140.72;100.00;52946.88;5030094;28;20069;-69
2022/10/15 03:52:40;;;;;;;30.88;20.75;;;;;;;-140.72;100.00;52938.75;5043315;28;20021;-68
2022/10/15 03:55:08;;;;;;;19.60;16.83;;;;;;;-140.72;100.00;52967.16;5040361;28;20030;-69
2022/10/15 03:57:33;;;;;;;24.67;19.05;;;;;;;-140.72;100.00;52946.88;5033813;28;20083;-69
2022/10/15 03:59:59;;;;;;;24.65;18.90;;;;;;;-140.72;100.00;52963.13;5050720;28;20033;-69
2022/10/15 04:02:24;;;;;;;25.08;18.50;;;;;;;-140.72;100.00;52932.66;5039062;28;20472;-71
2022/10/15 04:04:54;;;;;;;27.15;19.90;;;;;;;-140.72;100.00;53003.69;5043701;28;20579;-69
2022/10/15 04:07:20;;;;;;;22.48;18.15;;;;;;;-140.72;100.00;52983.41;5038502;28;20024;-70
2022/10/15 04:09:46;;;;;;;26.73;18.35;;;;;;;-140.72;100.00;52952.97;5044005;28;20029;-69
2022/10/15 04:12:11;;;;;;;31.80;20.80;;;;;;;-140.72;100.00;52950.94;5049438;28;20477;-69
2022/10/15 04:14:36;;;;;;;24.13;18.80;;;;;;;-140.72;100.00;52936.72;5045440;28;20049;-69
2022/10/15 04:17:02;;;;;;;29.10;20.48;;;;;;;-140.72;100.00;52936.72;5040011;28;20024;-69
2022/10/15 04:19:27;;;;;;;27.92;20.75;;;;;;;-140.72;100.00;52940.78;5041860;28;20375;-69
2022/10/15 04:21:53;;;;;;;28.52;21.90;;;;;;;-140.72;100.00;52930.66;5035442;28;20025;-70
2022/10/15 04:24:18;;;;;;;31.25;22.20;;;;;;;-140.72;100.00;52922.53;5048880;28;20036;-69
2022/10/15 04:26:44;;;;;;;29.00;20.20;;;;;;;-140.72;100.00;52989.50;5049571;28;20040;-69
2022/10/15 04:29:09;;;;;;;27.13;20.05;;;;;;;-140.72;100.00;52916.44;5035389;28;20036;-69
2022/10/15 04:31:36;;;;;;;30.02;20.15;;;;;;;-140.72;100.00;52916.44;5047683;28;20040;-69
2022/10/15 04:34:01;;;;;;;26.80;19.98;;;;;;;-140.72;100.00;52924.56;5052989;28;20021;-68
2022/10/15 04:36:27;;;;;;;27.15;19.88;;;;;;;-140.72;100.00;52955.00;5051318;28;20028;-68
2022/10/15 04:38:52;;;;;;;31.73;21.58;;;;;;;-140.72;100.00;52946.88;5052378;28;20343;-69
2022/10/15 04:41:17;;;;;;;26.98;21.38;;;;;;;-140.72;100.00;52922.53;5045549;28;20028;-68
2022/10/15 04:43:43;;;;;;;28.38;20.30;;;;;;;-140.72;100.00;52918.47;5051919;28;20091;-67
2022/10/15 04:46:08;;;;;;;25.75;19.02;;;;;;;-140.72;100.00;52902.22;5051631;28;20021;-69
2022/10/15 04:48:35;;;;;;;31.65;20.63;;;;;;;-140.72;100.00;52936.72;5043855;28;20021;-68
2022/10/15 04:51:10;;;;;;;24.83;20.33;;;;;;;-140.72;100.00;52995.59;5045776;28;20400;-68
2022/10/15 04:53:35;;;;;;;30.55;20.95;;;;;;;-140.72;100.00;52959.06;5052752;28;20372;-69
2022/10/15 04:56:03;;;;;;;24.67;18.60;;;;;;;-140.72;100.00;52914.41;5038759;28;20025;-70
2022/10/15 04:58:30;;;;;;;28.50;18.77;;;;;;;-140.72;100.00;52959.06;5043241;28;20029;-69
2022/10/15 05:01:05;;;;;;;34.08;20.77;;;;;;;-140.72;100.00;52979.34;5048264;28;20430;-70
2022/10/15 05:03:32;;;;;;;23.77;17.40;;;;;;;-140.72;100.00;52971.22;5032078;28;20029;-69
2022/10/15 05:06:06;;;;;;;27.73;17.88;;;;;;;-140.72;100.00;52957.03;5032584;28;20021;-70
2022/10/15 05:08:33;;;;;;;26.67;16.23;;;;;;;-140.72;100.00;52918.47;5030814;28;20096;-68
2022/10/15 05:11:06;;;;;;;27.58;18.27;;;;;;;-140.72;100.00;52967.16;5050359;28;20108;-69
2022/10/15 05:13:32;;;;;;;25.77;18.13;;;;;;;-140.72;100.00;52930.66;5050093;28;20068;-68
2022/10/15 05:16:18;;;;;;;22.98;17.30;;;;;;;-140.72;100.00;52971.22;5051641;28;20102;-69
2022/10/15 05:18:45;;;;;;;23.52;16.50;;;;;;;-140.72;100.00;52942.81;5046273;28;20049;-68
2022/10/15 05:21:11;;;;;;;25.38;16.67;;;;;;;-140.72;100.00;52938.75;5035727;28;20466;-69
2022/10/15 05:23:40;;;;;;;25.52;17.27;;;;;;;-140.72;100.00;52926.59;5045290;28;20025;-69
2022/10/15 05:26:09;;;;;;;27.33;17.80;;;;;;;-140.72;100.00;52934.69;5031519;28;20040;-68
2022/10/15 05:28:35;;;;;;;24.70;16.75;;;;;;;-140.72;100.00;52906.28;5050442;28;20033;-68
2022/10/15 05:31:18;;;;;;;26.50;16.70;;;;;;;-140.72;100.00;52989.50;5039752;28;20028;-70
2022/10/15 05:33:43;;;;;;;25.70;17.23;;;;;;;-140.72;100.00;52971.22;5038530;28;20029;-69
2022/10/15 05:36:09;;;;;;;25.52;16.10;;;;;;;-140.72;100.00;52932.66;5043811;28;20021;-66
2022/10/15 05:38:34;;;;;;;27.38;17.60;;;;;;;-140.72;100.00;52932.66;5049863;28;20025;-70
2022/10/15 05:40:59;;;;;;;23.98;15.60;;;;;;;-140.72;100.00;52950.94;5037896;28;20017;-69
2022/10/15 05:43:25;;;;;;;24.02;16.90;;;;;;;-140.72;100.00;52934.69;5037211;28;20032;-70
2022/10/15 05:45:54;;;;;;;20.13;14.73;;;;;;;-140.72;100.00;52924.56;5051179;28;20028;-70
2022/10/15 05:48:19;;;;;;;23.17;15.73;;;;;;;-140.72;100.00;52938.75;5049742;28;20448;-70
2022/10/15 05:50:45;;;;;;;25.77;15.95;;;;;;;-140.72;100.00;52926.59;5050860;28;20032;-70
2022/10/15 05:53:10;;;;;;;20.38;14.15;;;;;;;-140.72;100.00;52914.41;5037540;28;20131;-68
2022/10/15 05:55:36;;;;;;;21.95;15.27;;;;;;;-140.72;100.00;52971.22;5037874;28;20071;-68
2022/10/15 05:58:02;;;;;;;19.55;14.63;;;;;;;-140.72;100.00;52952.97;5049624;28;20151;-68
2022/10/15 06:00:29;;;;;;;22.88;13.35;;;;;;;-140.72;100.00;52963.13;5050600;28;20373;-69
2022/10/15 06:02:55;;;;;;;20.83;14.75;;;;;;;-140.72;100.00;52946.88;5048223;28;20028;-69
2022/10/15 06:05:20;;;;;;;17.60;12.98;;;;;;;-140.72;100.00;52950.94;5049834;28;20021;-69
2022/10/15 06:07:46;;;;;;;22.98;14.23;;;;;;;-140.72;100.00;52924.56;5049787;28;20029;-69
2022/10/15 06:10:11;;;;;;;17.92;12.23;;;;;;;-140.72;100.00;52946.88;5049714;28;20052;-69
2022/10/15 06:12:38;;;;;;;20.85;12.93;;;;;;;-140.72;100.00;52936.72;5043187;28;20025;-69
2022/10/15 06:15:04;;;;;;;20.05;13.93;;;;;;;-140.72;100.00;52936.72;5037754;28;20027;-68
2022/10/15 06:17:30;;;;;;;21.05;13.30;;;;;;;-140.72;100.00;52938.75;5048307;28;20063;-68
2022/10/15 06:19:55;;;;;;;17.95;12.98;;;;;;;-140.72;100.00;52932.66;5042145;28;20024;-69
2022/10/15 06:22:20;;;;;;;22.67;13.63;;;;;;;-140.72;100.00;52952.97;5041614;28;20025;-69
2022/10/15 06:24:46;;;;;;;20.40;13.02;;;;;;;-140.72;100.00;52886.00;5034675;28;20033;-68
2022/10/15 06:27:12;;;;;;;19.05;11.82;;;;;;;-140.72;100.00;52952.97;5040778;28;20135;-69
2022/10/15 06:29:38;;;;;;;23.17;13.52;;;;;;;-140.72;100.00;52948.91;5043127;28;20025;-69
2022/10/15 06:32:04;;;;;;;21.85;13.35;;;;;;;-140.72;100.00;52930.66;5045614;28;20111;-70
2022/10/15 06:34:32;;;;;;;20.20;13.13;;;;;;;-140.72;100.00;52902.22;5041293;28;20364;-69
2022/10/15 06:36:57;;;;;;;21.27;13.05;;;;;;;-140.72;100.00;52914.41;5038487;28;20026;-69
2022/10/15 06:39:22;;;;;;;24.27;15.48;;;;;;;-140.72;100.00;52918.47;5041257;28;20497;-70
2022/10/15 06:41:51;;;;;;;27.20;15.93;;;;;;;-140.72;100.00;52930.66;5041540;28;20021;-69
2022/10/15 06:44:16;;;;;;;27.98;16.45;;;;;;;-140.72;100.00;52902.22;5041595;28;20074;-69
2022/10/15 06:46:41;;;;;;;27.95;16.50;;;;;;;-140.72;100.00;52914.41;5042387;28;20124;-70
2022/10/15 06:49:07;;;;;;;33.85;18.90;;;;;;;-140.72;100.00;52940.78;5040480;28;20039;-69
2022/10/15 06:51:33;;;;;;;28.77;18.20;;;;;;;-140.72;100.00;52924.56;5040811;28;20466;-69
2022/10/15 06:53:58;;;;;;;34.70;18.38;;;;;;;-140.72;100.00;52875.84;5044015;28;20154;-70
2022/10/15 06:56:24;;;;;;;27.77;17.63;;;;;;;-140.72;100.00;52914.41;5042654;28;20028;-69
2022/10/15 06:58:49;;;;;;;28.60;17.45;;;;;;;-140.72;100.00;52934.69;5042995;28;20497;-69
2022/10/15 07:01:16;;;;;;;30.27;17.52;;;;;;;-140.72;100.00;52930.66;5049305;28;20028;-70
2022/10/15 07:03:41;;;;;;;28.20;15.98;;;;;;;-140.72;100.00;52940.78;5049664;28;20048;-70
2022/10/15 07:06:08;;;;;;;23.02;17.05;;;;;;;-140.72;100.00;52932.66;5047882;28;20060;-69
2022/10/15 07:08:34;;;;;;;21.58;15.93;;;;;;;-140.72;100.00;52914.41;5049173;28;20035;-69
2022/10/15 07:11:02;;;;;;;25.83;16.20;;;;;;;-140.72;100.00;52910.34;5048179;28;20472;-70
2022/10/15 07:13:28;;;;;;;29.83;17.55;;;;;;;-140.72;100.00;52936.72;5043023;28;20025;-70
2022/10/15 07:15:54;;;;;;;27.27;17.13;;;;;;;-140.72;100.00;52930.66;5042124;28;20029;-70
2022/10/15 07:18:20;;;;;;;31.98;18.60;;;;;;;-140.72;100.00;52918.47;5039869;28;20382;-69
2022/10/15 07:20:45;;;;;;;32.97;20.75;;;;;;;-140.72;100.00;52916.44;5043289;28;20028;-69
2022/10/15 07:23:11;;;;;;;34.25;19.98;;;;;;;-140.72;100.00;52918.47;5040735;28;20029;-69
2022/10/15 07:25:37;;;;;;;40.40;21.50;;;;;;;-140.72;100.00;52936.72;5048875;28;20029;-69
2022/10/15 07:28:03;;;;;;;36.33;20.27;;;;;;;-140.72;100.00;52932.66;5035936;28;20473;-70
2022/10/15 07:30:28;;;;;;;36.45;20.63;;;;;;;-140.72;100.00;52904.25;5037537;28;20036;-69
2022/10/15 07:32:55;;;;;;;41.38;22.70;;;;;;;-140.72;100.00;52932.66;5034929;28;20458;-70
2022/10/15 07:35:21;;;;;;;37.55;20.15;;;;;;;-140.72;100.00;52934.69;5032766;28;20033;-70
2022/10/15 07:37:47;;;;;;;41.40;22.50;;;;;;;-140.72;100.00;52930.66;5042797;28;20369;-70
2022/10/15 07:40:13;;;;;;;39.20;22.50;;;;;;;-140.72;100.00;52906.28;5047550;28;20032;-69
2022/10/15 07:42:39;;;;;;;37.40;20.33;;;;;;;-140.72;100.00;52900.19;5043201;28;20021;-70
2022/10/15 07:45:05;;;;;;;39.25;20.90;;;;;;;-140.72;100.00;52977.31;5029671;28;20025;-70
2022/10/15 07:47:31;;;;;;;33.17;19.13;;;;;;;-140.72;100.00;52938.75;5044140;28;20422;-70
2022/10/15 07:49:57;;;;;;;33.72;19.70;;;;;;;-140.72;100.00;52918.47;5048717;28;20025;-71
2022/10/15 07:52:22;;;;;;;32.17;18.83;;;;;;;-140.72;100.00;52926.59;5048611;28;20278;-70
2022/10/15 07:54:47;;;;;;;32.67;18.17;;;;;;;-140.72;100.00;52908.31;5047453;28;20384;-70
2022/10/15 07:57:13;;;;;;;25.52;16.40;;;;;;;-140.72;100.00;52912.38;5047588;28;20099;-70
2022/10/15 07:59:38;;;;;;;24.95;15.15;;;;;;;-140.72;100.00;52934.69;5047629;28;20239;-70
2022/10/15 08:02:03;;;;;;;27.08;15.73;;;;;;;-140.72;100.00;52894.13;5036553;28;20029;-70
2022/10/15 08:04:29;;;;;;;24.35;13.95;;;;;;;-140.72;100.00;52914.41;5048243;28;20056;-70
2022/10/15 08:06:55;;;;;;;19.83;13.55;;;;;;;-140.72;100.00;52902.22;5036285;28;20484;-73
2022/10/15 08:09:20;;;;;;;19.92;13.65;;;;;;;-140.72;100.00;52879.91;5030402;28;20032;-70
2022/10/15 08:11:45;;;;;;;21.00;13.13;;;;;;;-140.72;100.00;52898.16;5047044;28;20109;-70
2022/10/15 08:14:12;;;;;;;20.42;13.38;;;;;;;-140.72;100.00;52910.34;5046954;28;20029;-70
2022/10/15 08:16:37;;;;;;;21.88;13.50;;;;;;;-140.72;100.00;52930.66;5047186;28;20025;-70
2022/10/15 08:19:03;;;;;;;18.40;11.82;;;;;;;-140.72;100.00;52871.78;5043700;28;20468;-70
2022/10/15 08:21:28;;;;;;;17.70;13.18;;;;;;;-140.72;100.00;52879.91;5043080;28;20105;-70
2022/10/15 08:23:53;;;;;;;16.63;12.30;;;;;;;-140.72;100.00;52877.88;5039959;28;20041;-70
2022/10/15 08:26:18;;;;;;;15.25;11.13;;;;;;;-140.72;100.00;52890.06;5039550;28;20060;-70
2022/10/15 08:28:44;;;;;;;18.50;11.52;;;;;;;-140.72;100.00;52888.03;5045244;28;20024;-70
2022/10/15 08:31:09;;;;;;;16.92;11.57;;;;;;;-140.72;100.00;52861.66;5046802;28;20438;-70
2022/10/15 08:33:36;;;;;;;17.52;12.15;;;;;;;-140.72;100.00;52877.88;5045175;28;20021;-70
2022/10/15 08:36:04;;;;;;;16.73;10.77;;;;;;;-140.72;100.00;52910.34;5047484;28;20381;-70
2022/10/15 08:38:30;;;;;;;15.30;10.38;;;;;;;-140.72;100.00;52892.09;5048422;28;20024;-71
2022/10/15 08:40:58;;;;;;;13.60;9.25;;;;;;;-140.72;100.00;52877.88;5046801;28;20017;-70
2022/10/15 08:43:39;;;;;;;13.07;9.02;;;;;;;-140.72;100.00;52861.66;5043953;28;20021;-70
2022/10/15 08:46:10;;;;;;;14.30;9.63;;;;;;;-140.72;100.00;52851.50;5047517;28;20104;-70
2022/10/15 08:48:44;;;;;;;12.68;8.90;;;;;;;-140.72;100.00;52869.75;5050826;28;20487;-69
2022/10/15 08:51:17;;;;;;;12.07;7.82;;;;;;;-140.72;100.00;52827.16;5047576;28;20016;-70
2022/10/15 08:54:05;;;;;;;11.50;8.30;;;;;;;-140.72;100.00;52827.16;5049708;28;20506;-68
2022/10/15 08:56:42;;;;;;;15.20;8.70;;;;;;;-140.72;100.00;52843.38;5045316;28;20045;-69
2022/10/15 08:59:48;;;;;;;11.43;7.53;;;;;;;-140.72;100.00;52883.97;5047963;28;20028;-69
2022/10/15 09:02:38;;;;;;;11.10;7.20;;;;;;;-140.72;100.00;52908.31;5029079;28;20087;-69
2022/10/15 09:05:27;;;;;;;10.40;6.60;;;;;;;-140.72;100.00;52914.41;5029039;28;20108;-69
2022/10/15 09:08:06;;;;;;;11.07;6.93;;;;;;;-140.72;100.00;52908.31;5037861;28;20029;-69
2022/10/15 09:10:42;;;;;;;14.23;6.05;;;;;;;-140.72;100.00;52912.38;5048882;28;20030;-69
2022/10/15 09:13:15;;;;;;;9.63;6.88;;;;;;;-140.72;100.00;52908.31;5041032;28;20013;-69
2022/10/15 09:15:50;;;;;;;9.55;6.40;;;;;;;-140.72;100.00;52918.47;5032334;28;20010;-68
2022/10/15 09:18:23;;;;;;;10.48;7.38;;;;;;;-140.72;100.00;52904.25;5047936;28;20086;-69
2022/10/15 09:20:49;;;;;;;12.32;7.82;;;;;;;-140.72;100.00;52914.41;5035801;28;20024;-69
2022/10/15 09:23:24;;;;;;;14.00;7.85;;;;;;;-140.72;100.00;52916.44;5041451;28;20056;-69
2022/10/15 09:26:08;;;;;;;10.68;6.88;;;;;;;-140.72;100.00;52912.38;5045063;28;20025;-70
2022/10/15 09:29:01;;;;;;;10.63;7.63;;;;;;;-140.72;100.00;52873.81;5045794;28;20049;-68
2022/10/15 09:31:43;;;;;;;13.73;8.45;;;;;;;-140.72;100.00;52886.00;5044481;28;20273;-68
2022/10/15 09:34:38;;;;;;;12.55;7.72;;;;;;;-140.72;100.00;52890.06;5043369;28;20033;-68
2022/10/15 09:37:32;;;;;;;12.52;8.15;;;;;;;-140.72;100.00;52892.09;5049879;28;20041;-68
2022/10/15 09:40:27;;;;;;;9.95;7.43;;;;;;;-140.72;100.00;52890.06;5035633;28;20074;-69
2022/10/15 09:42:54;;;;;;;11.65;7.32;;;;;;;-140.72;100.00;52902.22;5048284;28;20429;-69
2022/10/15 09:45:22;;;;;;;12.45;7.22;;;;;;;-140.72;100.00;52888.03;5051692;28;20112;-68
2022/10/15 09:47:49;;;;;;;11.32;7.10;;;;;;;-140.72;100.00;52831.19;5037225;28;20297;-68
2022/10/15 09:50:14;;;;;;;11.40;7.88;;;;;;;-140.72;100.00;52898.16;5051477;28;20442;-71
2022/10/15 09:53:16;;;;;;;9.43;6.32;;;;;;;-140.72;100.00;52865.69;5051319;28;20021;-70
2022/10/15 09:56:07;;;;;;;10.23;6.72;;;;;;;-140.72;100.00;52906.28;5050293;28;20033;-71
2022/10/15 09:58:50;;;;;;;10.48;7.47;;;;;;;-140.72;100.00;52883.97;5050747;28;20033;-70
2022/10/15 10:01:32;;;;;;;9.48;6.50;;;;;;;-140.72;100.00;52894.13;5043929;28;20029;-70
2022/10/15 10:04:19;;;;;;;9.52;7.28;;;;;;;-140.72;100.00;52908.31;5047382;28;20052;-69
2022/10/15 10:06:48;;;;;;;10.15;6.90;;;;;;;-140.72;100.00;52877.88;5039109;28;20055;-69
2022/10/15 10:09:19;;;;;;;9.18;7.18;;;;;;;-140.72;100.00;52869.75;5049588;28;20119;-70
2022/10/15 10:12:16;;;;;;;11.18;7.50;;;;;;;-140.72;100.00;52881.94;5050718;28;20028;-69
2022/10/15 10:14:51;;;;;;;12.10;7.70;;;;;;;-140.72;100.00;52898.16;5031729;28;20122;-69
2022/10/15 10:17:19;;;;;;;14.50;7.50;;;;;;;-140.72;100.00;52886.00;5044156;28;20021;-69
2022/10/15 10:20:11;;;;;;;10.63;5.85;;;;;;;-140.72;100.00;52904.25;5031198;28;20029;-69
2022/10/15 10:22:46;;;;;;;14.98;9.23;;;;;;;-140.72;100.00;52900.19;5030515;28;20025;-69
2022/10/15 10:25:33;;;;;;;12.57;7.82;;;;;;;-140.72;100.00;52861.66;5030436;28;20028;-69
2022/10/15 10:28:10;;;;;;;11.57;7.32;;;;;;;-140.72;100.00;52928.63;5043582;28;20075;-69
2022/10/15 10:30:41;;;;;;;9.35;5.78;;;;;;;-140.72;100.00;52918.47;5040204;28;20510;-69
2022/10/15 10:33:11;;;;;;;7.32;4.13;;;;;;;-140.72;100.00;52865.69;5050251;28;20029;-69
2022/10/15 10:35:46;;;;;;;7.13;5.10;;;;;;;-140.72;100.00;52894.13;5050368;28;20167;-69
2022/10/15 10:38:30;;;;;;;6.95;4.55;;;;;;;-140.72;100.00;52898.16;5049896;28;20104;-69
2022/10/15 10:41:08;;;;;;;7.43;4.90;;;;;;;-140.72;100.00;52883.97;5037548;28;20369;-69
2022/10/15 10:43:39;;;;;;;6.50;4.63;;;;;;;-140.72;100.00;52894.13;5030629;28;20021;-69
2022/10/15 10:46:23;;;;;;;8.77;5.18;;;;;;;-140.72;100.00;52857.59;5032848;28;20377;-69
2022/10/15 10:48:51;;;;;;;9.63;5.63;;;;;;;-140.72;100.00;52906.28;5041310;28;20049;-68
2022/10/15 10:51:21;;;;;;;6.82;4.25;;;;;;;-140.72;100.00;52853.53;5045864;28;20459;-69
2022/10/15 10:54:02;;;;;;;7.68;4.03;;;;;;;-140.72;100.00;52910.34;5039825;28;20052;-69
2022/10/15 10:56:37;;;;;;;6.63;4.43;;;;;;;-140.72;100.00;52865.69;5043807;28;20021;-69
2022/10/15 10:59:15;;;;;;;7.90;4.53;;;;;;;-140.72;100.00;52900.19;5043124;28;20027;-69
2022/10/15 11:01:41;;;;;;;8.32;4.53;;;;;;;-140.72;100.00;52883.97;5040177;28;20025;-70
2022/10/15 11:04:13;;;;;;;7.07;4.50;;;;;;;-140.72;100.00;52896.16;5048817;28;20063;-69
2022/10/15 11:07:00;;;;;;;6.63;3.95;;;;;;;-140.72;100.00;52847.44;5050222;28;20028;-69
2022/10/15 11:09:44;;;;;;;5.30;3.47;;;;;;;-140.72;100.00;52900.19;5042460;28;20021;-70